หน้าหลัก
METAR-TAF:

METAR-TAF

ท่าอากาศยาน :

ท่าอากาศยานนานาชาติโลแกน

บอสตัน, แมสซาชูเซตส์, สหรัฐอเมริกา

ละติจูด: 42-21-38N, ลองจิจูด: 071-00-38W, ความสูง: 6 ม.

การสังเกตสภาพอากาศปัจจุบัน

รายงานได้ทำขึ้นเมื่อ 8 นาทีที่แล้ว ณ เวลา 19:54 UTC
ลม 17 นอตจากตะวันตกโดยมีลมกระโชกได้ถึง28 นอต
อุณหภูมิ 22°C
ความชื้น 31%
ความกดอากาศ 1007 hPa
ทัศนวิสัย: 16.1 กม.
มีเมฆน้อยที่ความสูง 4400 ฟุต
มีเมฆกระจายเป็นบางส่วนที่ความสูง 9500 ฟุต

METAR: KBOS 151954Z 27017G28KT 10SM FEW044 SCT095 22/04 A2975 RMK AO2 PK WND 28030/1859 SLP075 T02220044

เวลา: 16:02 (20:02 UTC)

การพยากรณ์

รายงานได้ทำขึ้นเมื่อ 2 ชั่วโมงและ 2 นาทีที่แล้ว ณ เวลา 18:00 UTC
การพยากรณ์มีผลตั้งแต่วันที่ 15 ณ เวลา 18 UTC จนถึงวันที่ 16 ณ เวลา 24 UTC
ลม 12 นอตจากตะวันตกโดยมีลมกระโชกได้ถึง25 นอต
ทัศนวิสัย: 10 กม.
มีเมฆน้อยที่ความสูง 5000 ฟุต
จาก 16 ณ เวลา 0000 UTC
ลม 6 นอตจากตะวันตก/ตะวันตกเฉียงเหนือ
ทัศนวิสัย: 10 กม.
มีเมฆน้อยที่ความสูง 25000 ฟุต

TAF: KBOS 151800Z 1518/1624 28012G25KT P6SM FEW050 FM160000 29006KT P6SM FEW250

สังเกตการณ์สภาพอากาศและพยากรณ์อากาศของสนามบินมากกว่า 4000 แห่ง (รายงาน METAR และ TAF).

สถานีที่ดูได้จะแสดงไว้ด้วยจุดสีเหลืองและสีแดงบนแผนที่.

เลื่อนเมาส์ไปเหนือจุดเพื่อดูชื่อสถานี.

แล้วคลิกเพื่อดูสังเกตการณ์และการพยากรณ์สภาพอากาศ.

ในการเปลี่ยนแผนที่: คลิกที่ปุ่มสีเขียวที่มีกากบาทสีดำเพื่อซูมเข้า; ที่ปุ่มสีเขียวที่มีขีดเพื่อซูมออก; หรือที่ลูกศรสีเขียวเพื่อไปยังแผนที่ที่อยู่ติดกัน.


METAR-TAF: